createdAt,value
2022-08-09T00:01:17.341Z,67.51813947387681
2022-08-09T00:04:25.092Z,67.48749550323937
2022-08-09T00:07:17.577Z,68.36971699198835
2022-08-09T00:11:24.986Z,68.59370942072896
2022-08-09T00:14:28.027Z,68.47750363226282
2022-08-09T00:18:05.797Z,68.53018475973634
2022-08-09T00:21:15.892Z,69.00786488043629
2022-08-09T00:24:17.074Z,69.17227844377582
2022-08-09T00:27:16.295Z,69.05828714766757
2022-08-09T00:31:57.010Z,69.52279825839467
2022-08-09T00:44:11.267Z,69.7429377306361
2022-08-09T00:47:16.196Z,70.28686847290989
2022-08-09T00:51:17.755Z,69.99882148627132
2022-08-09T00:54:16.751Z,70.26744831453962
2022-08-09T00:57:24.802Z,70.52951806042405
2022-08-09T01:01:20.574Z,70.4127612640176
2022-08-09T01:04:23.746Z,70.5722088890859
2022-08-09T01:07:21.651Z,70.03182085771341
2022-08-09T01:11:27.474Z,69.90255208711716
2022-08-09T01:14:23.362Z,70.150990970065
2022-08-09T01:17:30.465Z,70.56849170859692
2022-08-09T01:21:41.328Z,71.45219389872572
2022-08-09T01:24:30.295Z,71.48742190307107
2022-08-09T01:27:19.291Z,71.19258838372839
2022-08-09T01:31:40.881Z,70.64916749721249
2022-08-09T01:34:20.500Z,70.52345893779993
2022-08-09T01:37:21.846Z,70.22291285268021
2022-08-09T01:41:18.316Z,70.01867501916578
2022-08-09T01:44:16.864Z,70.21611350766436
2022-08-09T01:47:17.965Z,70.51813610480123
2022-08-09T01:51:22.565Z,70.50787463709916
2022-08-09T01:54:18.974Z,70.13854358372505
2022-08-09T01:57:20.340Z,70.4775182726886
2022-08-09T02:01:18.755Z,71.2736836577633
2022-08-09T02:04:19.421Z,71.57668641694522
2022-08-09T02:08:38.412Z,72.00149142246369
2022-08-09T02:11:17.134Z,71.09963424537517
2022-08-09T02:14:25.648Z,70.10816839961039
2022-08-09T02:18:01.327Z,69.83789321446245
2022-08-09T02:21:21.820Z,69.56977946404838
2022-08-09T02:24:26.530Z,70.01398986297855
2022-08-09T02:27:19.365Z,70.43374794974144
2022-08-09T02:31:19.983Z,70.49529145859053
2022-08-09T02:34:40.119Z,70.65085153557187
2022-08-09T02:37:19.664Z,71.19198983717646
2022-08-09T02:41:24.064Z,70.977745256636
2022-08-09T02:44:27.417Z,71.47845670986459
2022-08-09T02:47:20.602Z,71.61694158008348
2022-08-09T02:51:19.808Z,72.13404542237771
2022-08-09T02:54:18.443Z,72.0420569310463
2022-08-09T02:57:23.630Z,72.11570402833277
2022-08-09T03:01:21.921Z,72.67912915614923
2022-08-09T03:04:21.757Z,72.75849949647662
2022-08-09T03:07:22.003Z,72.37421011498738
2022-08-09T03:12:04.379Z,73.1808343267356
2022-08-09T03:14:19.559Z,73.37251362615595
2022-08-09T03:17:26.739Z,73.3786204530213
2022-08-09T03:21:19.033Z,73.27570120381044
2022-08-09T03:24:31.325Z,73.5838509112037
2022-08-09T03:27:17.220Z,73.94094512368474
2022-08-09T03:31:22.618Z,73.68219013676264
2022-08-09T03:34:16.515Z,74.13511851102794
2022-08-09T03:37:55.917Z,74.41217320274336
2022-08-09T03:41:16.688Z,74.33895392396492
2022-08-09T03:44:15.840Z,74.0851304440907
2022-08-09T03:47:15.825Z,74.02551089594859
2022-08-09T03:51:57.326Z,74.93845211403689
2022-08-09T03:54:16.973Z,74.9915492331337
2022-08-09T03:57:20.040Z,75.3529060870446
2022-08-09T04:01:16.525Z,75.49042550664217
2022-08-09T04:04:17.327Z,75.12160807525574
2022-08-09T04:07:16.716Z,75.62912380716189
2022-08-09T04:11:15.727Z,75.58782825587824
2022-08-09T04:14:44.026Z,75.68726561180699
2022-08-09T04:17:15.997Z,75.8275363440937
2022-08-09T04:21:15.891Z,75.16977428972811
2022-08-09T04:24:17.043Z,75.5097445613627
2022-08-09T04:27:16.335Z,75.41296874619775
2022-08-09T04:31:16.756Z,75.98464982534237
2022-08-09T04:34:19.087Z,75.83149264546574
2022-08-09T04:37:17.143Z,75.60194181600444
2022-08-09T04:41:16.021Z,75.11713658721237
2022-08-09T04:44:16.492Z,75.65063673331314
2022-08-09T04:47:16.150Z,75.73442664135119
2022-08-09T04:51:16.666Z,75.52020002660085
2022-08-09T04:54:17.073Z,76.11242980104761
2022-08-09T04:57:17.015Z,76.08066734406809
2022-08-09T05:01:16.331Z,76.63680832683637
2022-08-09T05:04:17.197Z,76.73941266480468
2022-08-09T05:07:19.229Z,76.6733138869277
2022-08-09T05:11:16.725Z,76.7795965969223
2022-08-09T05:14:17.249Z,76.61401267947136
2022-08-09T05:18:39.272Z,77.09391611001176
2022-08-09T05:21:24.519Z,76.53746437144123
2022-08-09T05:24:16.726Z,76.24207906994319
2022-08-09T05:27:17.201Z,76.78139277420561
2022-08-09T05:31:15.864Z,78.2536588098457
2022-08-09T05:34:17.451Z,79.44883555669107
2022-08-09T05:37:16.424Z,79.96900724838049
2022-08-09T05:41:15.950Z,78.6910959172941
2022-08-09T05:44:16.530Z,77.49686390662677
2022-08-09T05:47:16.008Z,77.5016581112849
2022-08-09T05:51:16.634Z,78.09163695299085
2022-08-09T05:54:17.987Z,78.38363777052838
2022-08-09T05:57:17.580Z,78.12639660641257
2022-08-09T06:01:24.097Z,77.54674092172267
2022-08-09T06:04:23.454Z,76.86209794052152
2022-08-09T06:07:21.396Z,76.66948220562402
2022-08-09T06:11:17.566Z,76.98272855320585
2022-08-09T06:14:17.739Z,76.8391075563977
2022-08-09T06:17:16.098Z,76.45778963174594
2022-08-09T06:21:16.469Z,76.97816256521374
2022-08-09T06:24:17.035Z,75.7828672654977
2022-08-09T06:27:17.025Z,76.84529790448585
2022-08-09T06:31:16.041Z,76.9944479525412
2022-08-09T06:34:16.532Z,74.29145888404788
2022-08-09T06:37:16.368Z,73.29607743279178
2022-08-09T06:41:19.013Z,72.88253583822495
2022-08-09T06:44:18.062Z,72.58233364857219
2022-08-09T06:47:17.074Z,73.380492561017
2022-08-09T06:51:16.203Z,71.74449577439825
2022-08-09T06:54:16.777Z,72.14459733600037
2022-08-09T06:57:17.717Z,73.24903362207988
2022-08-09T07:01:16.594Z,73.34096731386383
2022-08-09T07:04:19.756Z,74.12132505540728
2022-08-09T07:07:58.440Z,72.64054774841583
2022-08-09T07:11:23.543Z,72.69386554870383
2022-08-09T07:14:18.028Z,72.25124983422604
2022-08-09T07:17:17.000Z,72.3260727514615
2022-08-09T07:21:16.508Z,71.8853046232447
2022-08-09T07:24:16.798Z,71.33093984800522
2022-08-09T07:27:26.805Z,71.93483349009713
2022-08-09T07:31:18.421Z,71.12596643061997
2022-08-09T07:34:20.771Z,71.60401618141834
2022-08-09T07:37:18.225Z,69.83401565358862
2022-08-09T07:41:16.416Z,69.65704064494692
2022-08-09T07:44:17.093Z,70.61453383520939
2022-08-09T07:47:28.992Z,69.38037651627226
2022-08-09T07:52:04.384Z,66.57063911015767
2022-08-09T07:54:19.136Z,65.73066151744358
2022-08-09T07:57:16.615Z,63.972077468973204
2022-08-09T08:01:15.788Z,64.98523211607119
2022-08-09T08:04:16.295Z,62.862860300884954
2022-08-09T08:08:42.676Z,62.54948136982087
2022-08-09T08:12:12.092Z,61.201017734638384
2022-08-09T08:14:15.885Z,60.66773554198482
2022-08-09T08:17:35.215Z,62.724811393787526
2022-08-09T08:21:16.075Z,62.04296485720208
2022-08-09T08:24:16.519Z,60.51191661186335
2022-08-09T08:27:18.542Z,59.46661280882435
2022-08-09T08:31:16.364Z,60.43315355796266
2022-08-09T08:34:17.049Z,58.48167433767574
2022-08-09T08:37:17.824Z,60.301445988907794
2022-08-09T08:41:17.219Z,60.13808773470523
2022-08-09T08:44:29.025Z,58.86960987325797
2022-08-09T08:47:18.037Z,61.99598322083456
2022-08-09T08:51:18.237Z,61.95223483697015
2022-08-09T08:54:20.595Z,60.589146929365704
2022-08-09T08:57:17.185Z,62.70917680879099
2022-08-09T09:01:19.667Z,59.68810871541934
2022-08-09T09:04:18.808Z,58.58591753043466
2022-08-09T09:07:18.718Z,57.990784667026176
2022-08-09T09:21:16.650Z,54.55742421912678
2022-08-09T09:24:21.716Z,53.76927290720862
2022-08-09T09:28:02.898Z,54.38131673247401
2022-08-09T09:32:01.784Z,53.26819500348095
2022-08-09T09:34:18.593Z,53.04011868044801
2022-08-09T09:37:32.304Z,51.81070662637128
2022-08-09T09:41:33.103Z,52.6298299509851
2022-08-09T09:44:25.604Z,53.214204579328474
2022-08-09T09:47:16.728Z,55.63627928837085
2022-08-09T09:51:37.973Z,55.00399278623918
2022-08-09T09:54:19.271Z,55.771151657844065
2022-08-09T09:58:01.515Z,54.610956423021065
2022-08-09T10:01:31.628Z,55.14882626216522
2022-08-09T10:04:22.810Z,54.85460449356533
2022-08-09T10:07:25.338Z,55.332220567128346
2022-08-09T10:12:00.778Z,55.04225686754546
2022-08-09T10:14:27.353Z,55.372636139110774
2022-08-09T10:17:40.241Z,56.09276421728652
2022-08-09T10:21:16.178Z,57.37672063354309
2022-08-09T10:24:25.435Z,59.18110269564192
2022-08-09T10:27:18.281Z,60.20269215079099
2022-08-09T10:34:32.801Z,58.35528170570005
2022-08-09T10:37:17.865Z,58.0938766417016
2022-08-09T10:41:17.843Z,57.66635125838849
2022-08-09T10:44:18.432Z,58.02190146313016
2022-08-09T10:48:20.425Z,58.24485998248548
2022-08-09T10:51:29.561Z,60.00908877122318
2022-08-09T10:54:22.815Z,59.896714148989396
2022-08-09T10:57:16.631Z,58.5189850364107
2022-08-09T11:03:11.243Z,57.817092425435845
2022-08-09T11:04:30.219Z,57.66573442552257
2022-08-09T11:07:57.296Z,56.25604030238023
2022-08-09T11:11:19.050Z,55.94705600271918
2022-08-09T11:14:35.371Z,56.5489056361747
2022-08-09T11:17:45.675Z,56.28489860939906
2022-08-09T11:21:57.177Z,55.799290324567664
2022-08-09T11:24:16.320Z,55.9894692275254
2022-08-09T11:28:05.537Z,56.07266223740115
2022-08-09T11:31:49.141Z,56.313339916394675
2022-08-09T11:34:41.523Z,55.91976324880467
2022-08-09T11:37:25.863Z,55.74901721622924
2022-08-09T11:41:37.680Z,55.323513307603235
2022-08-09T11:44:17.647Z,53.165419858493415
2022-08-09T11:47:16.791Z,50.855548399982105
2022-08-09T11:52:49.360Z,50.544183283005296
2022-08-09T11:54:34.801Z,49.83598384424485
2022-08-09T11:57:47.699Z,50.476883362003655
2022-08-09T12:02:15.988Z,51.42531280615412
2022-08-09T12:04:23.533Z,51.28934960055191
2022-08-09T12:07:16.423Z,51.45669993514325
2022-08-09T12:11:18.929Z,52.36819198355002
2022-08-09T12:14:28.512Z,52.163550274741304
2022-08-09T12:17:33.824Z,52.347823135322066
2022-08-09T12:21:28.387Z,53.241404744189964
2022-08-09T12:24:20.569Z,52.52898054615179
2022-08-09T12:29:13.475Z,52.77894211889697
2022-08-09T12:31:58.917Z,52.04006826571517
2022-08-09T12:41:24.166Z,52.0111408839305
2022-08-09T12:44:17.431Z,52.50515179680633
2022-08-09T12:47:16.905Z,52.126245040493075
2022-08-09T12:51:30.507Z,52.55380542723646
2022-08-09T12:54:18.081Z,52.55346385293119
2022-08-09T12:57:38.588Z,53.913534667917325
2022-08-09T13:01:23.417Z,54.71972645831832
2022-08-09T13:04:37.040Z,55.2203776543902
2022-08-09T13:07:19.401Z,56.07384765269187
2022-08-09T13:11:25.832Z,58.40253913895742
2022-08-09T13:14:42.753Z,58.89983089877285
2022-08-09T13:17:44.518Z,59.252078977669385
2022-08-09T13:22:33.467Z,60.02585057371927
2022-08-09T13:24:53.116Z,60.00539367531325
2022-08-09T13:27:26.193Z,59.561680797362506
2022-08-09T13:32:19.414Z,59.50378833828791
2022-08-09T13:34:16.556Z,64.75989926735649
2022-08-09T13:41:58.991Z,66.16139787362441
2022-08-09T13:44:17.692Z,65.6067703959809
2022-08-09T13:47:29.405Z,65.96309224127431
2022-08-09T13:51:16.263Z,67.0703205204449
2022-08-09T13:54:16.822Z,67.16145917889096
2022-08-09T13:57:36.520Z,67.86950515530805
2022-08-09T14:01:56.596Z,69.23813712840563
2022-08-09T14:04:16.677Z,69.41997482653949
2022-08-09T14:07:16.769Z,68.25420383956858
2022-08-09T14:11:16.765Z,70.25490975259282
2022-08-09T14:14:25.653Z,71.55913351684055
2022-08-09T14:17:17.017Z,72.00237233737388
2022-08-09T14:21:20.721Z,73.89324927271875
2022-08-09T14:24:18.587Z,73.36485852672091
2022-08-09T14:27:20.391Z,75.01847211768758
2022-08-09T14:31:16.142Z,74.7760462006562
2022-08-09T14:34:17.496Z,77.92729715048115
2022-08-09T14:37:16.343Z,77.584595245686
2022-08-09T14:41:35.233Z,80.10449117529316
2022-08-09T14:44:17.346Z,80.48130646315401
2022-08-09T14:47:42.838Z,81.09869167355754
2022-08-09T14:51:15.625Z,83.17281933219382
2022-08-09T14:54:16.868Z,83.40464829526412
2022-08-09T14:57:16.621Z,83.12264338462977
2022-08-09T15:01:16.064Z,85.38473709753075
2022-08-09T15:04:16.368Z,85.03344735267369
2022-08-09T15:07:17.216Z,85.88769955374497
2022-08-09T15:11:16.476Z,87.70313464143963
2022-08-09T15:14:19.224Z,87.75777846237258
2022-08-09T15:17:16.432Z,89.67237676571041
2022-08-09T15:21:55.923Z,90.85218317762612
2022-08-09T15:24:23.319Z,90.40519498460415
2022-08-09T15:27:16.251Z,89.5846136912481
2022-08-09T15:31:17.839Z,92.95392886833052
2022-08-09T15:34:32.449Z,93.52936624747171
2022-08-09T15:37:57.233Z,95.49014049557351
2022-08-09T15:41:22.068Z,96.1282399804262
2022-08-09T15:44:16.028Z,96.26008483399602
2022-08-09T15:47:22.830Z,98.54715555889186
2022-08-09T15:51:44.557Z,98.20038973936427
2022-08-09T15:54:31.356Z,96.1416313924474
2022-08-09T15:57:18.985Z,95.71114412421855
2022-08-09T16:01:15.935Z,94.23345298461736
2022-08-09T16:04:16.285Z,94.2599839792606
2022-08-09T16:07:16.270Z,94.57841359210568
2022-08-09T16:11:16.030Z,93.57073263295548
2022-08-09T16:14:16.431Z,95.02962720524742
2022-08-09T16:17:17.065Z,94.43734077253868
2022-08-09T16:21:17.405Z,95.12056428081513
2022-08-09T16:24:33.096Z,93.00324524275436
2022-08-09T16:27:17.166Z,92.78812097105785
2022-08-09T16:31:16.801Z,94.02656937142241
2022-08-09T16:34:17.304Z,93.86979089857525
2022-08-09T16:37:17.240Z,95.68916029774167
2022-08-09T16:41:19.917Z,94.22408832948034
2022-08-09T16:44:19.064Z,93.57555217079884
2022-08-09T16:48:38.244Z,93.80942269276217
2022-08-09T16:51:16.111Z,97.2989522256359
2022-08-09T16:54:27.700Z,95.3077188490348
2022-08-09T16:57:16.057Z,92.7990011806875
2022-08-09T17:01:15.843Z,90.54727699399112
2022-08-09T17:04:25.829Z,88.31345488139972
2022-08-09T17:08:45.641Z,87.43945867967989
2022-08-09T17:11:16.484Z,87.88712735883428
2022-08-09T17:14:27.660Z,88.03628912084748
2022-08-09T17:17:26.220Z,88.73305463773652
2022-08-09T17:21:15.703Z,87.7141078639811
2022-08-09T17:24:27.782Z,89.03344767978075
2022-08-09T17:27:17.233Z,87.91263685780521
2022-08-09T17:31:16.051Z,89.80053217743777
2022-08-09T17:34:20.285Z,92.1128856885622
2022-08-09T17:37:19.657Z,93.9241007721551
2022-08-09T17:41:15.809Z,92.54414456599689
2022-08-09T17:44:42.044Z,93.0644832242728
2022-08-09T17:47:16.432Z,93.35731354507867
2022-08-09T17:51:18.437Z,92.0489790073482
2022-08-09T17:54:16.250Z,92.92095386905598
2022-08-09T17:57:20.500Z,90.8677985975352
2022-08-09T18:01:23.010Z,89.31849361172249
2022-08-09T18:04:17.237Z,84.97161008862928
2022-08-09T18:07:23.207Z,85.23710119173103
2022-08-09T18:11:16.357Z,85.05380256493405
2022-08-09T18:14:16.387Z,83.70588250594521
2022-08-09T18:17:18.949Z,80.79026019400273
2022-08-09T18:21:22.822Z,79.10587250314258
2022-08-09T18:24:16.421Z,76.80689199325343
2022-08-09T18:27:49.107Z,77.63887595954111
2022-08-09T18:31:24.917Z,77.33992656035694
2022-08-09T18:34:16.182Z,76.19356805578664
2022-08-09T18:37:48.137Z,77.63938197179986
2022-08-09T18:41:17.592Z,77.98317438138798
2022-08-09T18:44:15.974Z,78.41244865993256
2022-08-09T18:47:19.514Z,79.45415501130927
2022-08-09T18:51:16.538Z,79.7256568055056
2022-08-09T18:54:20.096Z,81.04525040707452
2022-08-09T18:57:19.737Z,81.58991401592428
2022-08-09T19:01:16.168Z,82.53144489208
2022-08-09T19:04:17.304Z,81.33977309014502
2022-08-09T19:07:16.708Z,81.81520305449439
2022-08-09T19:11:16.469Z,82.15508569693135
2022-08-09T19:14:17.282Z,82.0690387648081
2022-08-09T19:17:16.684Z,81.45206810723231
2022-08-09T19:21:16.506Z,81.01849299080278
2022-08-09T19:24:31.854Z,80.70739137579656
2022-08-09T19:27:16.671Z,79.34659569187447
2022-08-09T19:31:16.805Z,81.88538170563774
2022-08-09T19:34:21.694Z,83.2092303996031
2022-08-09T19:37:16.865Z,83.41529541630322
2022-08-09T19:41:33.210Z,83.85928856503439
2022-08-09T19:44:17.766Z,83.18140493367461
2022-08-09T19:47:16.694Z,82.64974890550162
2022-08-09T19:51:17.621Z,83.93099952600646
2022-08-09T19:54:16.687Z,81.95858103496464
2022-08-09T19:57:16.392Z,80.71169661075231
2022-08-09T20:01:16.509Z,80.61919365246433
2022-08-09T20:04:36.035Z,80.96312848291431
2022-08-09T20:07:21.413Z,79.88678960571043
2022-08-09T20:11:15.980Z,79.69053451081952
2022-08-09T20:14:16.485Z,78.24870886968026
2022-08-09T20:17:16.437Z,79.09964120702112
2022-08-09T20:21:16.167Z,77.69772244946353
2022-08-09T20:24:19.430Z,78.83163037298121
2022-08-09T20:27:16.196Z,78.60925943143222
2022-08-09T20:31:17.072Z,78.14505292509904
2022-08-09T20:34:16.871Z,78.8867595654336
2022-08-09T20:37:16.548Z,78.31923929025233
2022-08-09T20:41:16.120Z,77.57820826004253
2022-08-09T20:44:16.448Z,77.69240707656424
2022-08-09T20:47:45.652Z,76.68005000030378
2022-08-09T20:51:21.664Z,75.9285025962954
2022-08-09T20:54:18.149Z,75.37736603618667
2022-08-09T20:57:18.120Z,75.90745657775183
2022-08-09T21:01:34.444Z,76.29244131814357
2022-08-09T21:05:51.342Z,76.14161195404226
2022-08-09T21:07:16.698Z,77.31182725375322
2022-08-09T21:14:16.827Z,76.98362987947134
2022-08-09T21:18:21.908Z,76.00859759587033
2022-08-09T21:21:17.067Z,75.44000598262873
2022-08-09T21:24:19.338Z,76.58749429014829
2022-08-09T21:27:51.614Z,78.34601955926965
2022-08-09T21:31:19.790Z,78.86162724016008
2022-08-09T21:34:28.607Z,79.78001931967313
2022-08-09T21:37:18.268Z,79.65508249102518
2022-08-09T21:41:17.106Z,80.43381215028853
2022-08-09T21:44:34.694Z,79.2276634773436
2022-08-09T21:47:17.658Z,78.59885736813527
2022-08-09T21:51:16.642Z,78.37397426381082
2022-08-09T21:54:16.714Z,77.11071276185473
2022-08-09T21:57:25.443Z,75.79118328947905
2022-08-09T22:01:26.057Z,76.24701418540886
2022-08-09T22:04:16.202Z,77.12737509688407
2022-08-09T22:07:35.533Z,77.3373605430013
2022-08-09T22:12:06.707Z,77.87432328361221
2022-08-09T22:14:16.617Z,78.04241320634523
2022-08-09T22:17:16.429Z,77.45850101681917
2022-08-09T22:21:21.835Z,76.39452672231492
2022-08-09T22:24:24.770Z,75.6202706910495
2022-08-09T22:27:16.309Z,75.46023886070797
2022-08-09T22:31:17.867Z,75.07349212204457
2022-08-09T22:34:17.985Z,75.50286446674554
2022-08-09T22:37:19.579Z,73.60879088615286
2022-08-09T22:41:17.248Z,74.72941950805013
2022-08-09T22:44:17.408Z,74.6188215986744
2022-08-09T22:48:15.100Z,74.41249959287634
2022-08-09T22:51:23.829Z,73.936391381189
2022-08-09T22:54:17.115Z,73.02949806167813
2022-08-09T22:57:16.372Z,72.08256810846218
2022-08-09T23:01:16.240Z,70.86965019245359
2022-08-09T23:04:16.553Z,72.04718072079851
2022-08-09T23:11:18.554Z,74.90329580493186
2022-08-09T23:14:17.719Z,75.84027891908326
2022-08-09T23:17:16.698Z,76.87235699617085
2022-08-09T23:21:23.878Z,76.41482084494096
2022-08-09T23:24:16.891Z,76.7712614661275
2022-08-09T23:27:16.624Z,77.91729430765474
2022-08-09T23:31:16.228Z,77.31079299844673
2022-08-09T23:34:16.767Z,75.92684477244671
2022-08-09T23:37:17.665Z,75.3938622637981
2022-08-09T23:41:27.701Z,75.43893827969286
2022-08-09T23:44:16.896Z,74.7378989779578
2022-08-09T23:47:16.806Z,73.83272984603677
2022-08-09T23:51:16.028Z,74.60646009864978
2022-08-09T23:54:17.322Z,76.03163736287527
2022-08-09T23:57:17.825Z,75.98981734618353
